sensor_id;sensor_type;location;lat;lon;timestamp;temperature;humidity
46552;DHT22;32278;51.810;4.712;2022-09-09T00:01:45;16.80;99.90
46552;DHT22;32278;51.810;4.712;2022-09-09T00:04:30;16.80;99.90
46552;DHT22;32278;51.810;4.712;2022-09-09T00:07:21;16.70;99.90
46552;DHT22;32278;51.810;4.712;2022-09-09T00:10:05;16.70;99.90
46552;DHT22;32278;51.810;4.712;2022-09-09T00:15:34;16.70;99.90
46552;DHT22;32278;51.810;4.712;2022-09-09T00:20:49;16.60;99.90
46552;DHT22;32278;51.810;4.712;2022-09-09T00:23:37;16.70;99.90
46552;DHT22;32278;51.810;4.712;2022-09-09T00:31:41;16.70;99.90
46552;DHT22;32278;51.810;4.712;2022-09-09T00:34:17;16.70;99.90
46552;DHT22;32278;51.810;4.712;2022-09-09T00:36:44;16.70;99.90
46552;DHT22;32278;51.810;4.712;2022-09-09T00:39:32;16.70;99.90
46552;DHT22;32278;51.810;4.712;2022-09-09T00:44:48;16.70;99.90
46552;DHT22;32278;51.810;4.712;2022-09-09T00:49:52;16.60;99.90
46552;DHT22;32278;51.810;4.712;2022-09-09T00:54:58;16.70;99.90
46552;DHT22;32278;51.810;4.712;2022-09-09T00:57:33;16.60;99.90
46552;DHT22;32278;51.810;4.712;2022-09-09T01:00:51;16.60;99.90
46552;DHT22;32278;51.810;4.712;2022-09-09T01:11:04;16.70;99.90
46552;DHT22;32278;51.810;4.712;2022-09-09T01:13:32;16.70;99.90
46552;DHT22;32278;51.810;4.712;2022-09-09T01:16:03;16.60;99.90
46552;DHT22;32278;51.810;4.712;2022-09-09T01:18:36;16.60;99.90
46552;DHT22;32278;51.810;4.712;2022-09-09T01:24:17;16.70;99.90
46552;DHT22;32278;51.810;4.712;2022-09-09T01:26:49;16.80;99.90
46552;DHT22;32278;51.810;4.712;2022-09-09T01:29:18;16.70;99.90
46552;DHT22;32278;51.810;4.712;2022-09-09T01:34:42;16.70;99.90
46552;DHT22;32278;51.810;4.712;2022-09-09T01:37:10;16.80;99.90
46552;DHT22;32278;51.810;4.712;2022-09-09T01:39:39;16.80;99.90
46552;DHT22;32278;51.810;4.712;2022-09-09T01:42:09;16.70;99.90
46552;DHT22;32278;51.810;4.712;2022-09-09T01:44:36;16.60;99.90
46552;DHT22;32278;51.810;4.712;2022-09-09T01:47:04;16.50;99.90
46552;DHT22;32278;51.810;4.712;2022-09-09T01:49:29;16.50;99.90
46552;DHT22;32278;51.810;4.712;2022-09-09T01:51:56;16.50;99.90
46552;DHT22;32278;51.810;4.712;2022-09-09T01:54:25;16.60;99.90
46552;DHT22;32278;51.810;4.712;2022-09-09T02:02:30;16.50;99.90
46552;DHT22;32278;51.810;4.712;2022-09-09T02:05:07;16.50;99.90
46552;DHT22;32278;51.810;4.712;2022-09-09T02:07:44;16.60;99.90
46552;DHT22;32278;51.810;4.712;2022-09-09T02:10:21;16.50;99.90
46552;DHT22;32278;51.810;4.712;2022-09-09T02:12:52;16.50;99.90
46552;DHT22;32278;51.810;4.712;2022-09-09T02:15:35;16.60;99.90
46552;DHT22;32278;51.810;4.712;2022-09-09T02:18:07;16.60;99.90
46552;DHT22;32278;51.810;4.712;2022-09-09T02:20:36;16.60;99.90
46552;DHT22;32278;51.810;4.712;2022-09-09T02:23:03;16.50;99.90
46552;DHT22;32278;51.810;4.712;2022-09-09T02:25:29;16.40;99.90
46552;DHT22;32278;51.810;4.712;2022-09-09T02:27:56;16.40;99.90
46552;DHT22;32278;51.810;4.712;2022-09-09T02:30:24;16.50;99.90
46552;DHT22;32278;51.810;4.712;2022-09-09T02:32:52;16.50;99.90
46552;DHT22;32278;51.810;4.712;2022-09-09T02:35:23;16.50;99.90
46552;DHT22;32278;51.810;4.712;2022-09-09T02:37:51;16.40;99.90
46552;DHT22;32278;51.810;4.712;2022-09-09T02:40:18;16.40;99.90
46552;DHT22;32278;51.810;4.712;2022-09-09T02:42:45;16.40;99.90
46552;DHT22;32278;51.810;4.712;2022-09-09T02:45:15;16.40;99.90
46552;DHT22;32278;51.810;4.712;2022-09-09T02:47:45;16.40;99.90
46552;DHT22;32278;51.810;4.712;2022-09-09T02:57:48;16.50;99.90
46552;DHT22;32278;51.810;4.712;2022-09-09T03:00:15;16.50;99.90
46552;DHT22;32278;51.810;4.712;2022-09-09T03:02:41;16.50;99.90
46552;DHT22;32278;51.810;4.712;2022-09-09T03:05:07;16.40;99.90
46552;DHT22;32278;51.810;4.712;2022-09-09T03:07:33;16.30;99.90
46552;DHT22;32278;51.810;4.712;2022-09-09T03:09:59;16.30;99.90
46552;DHT22;32278;51.810;4.712;2022-09-09T03:12:24;16.30;99.90
46552;DHT22;32278;51.810;4.712;2022-09-09T03:14:50;16.30;99.90
46552;DHT22;32278;51.810;4.712;2022-09-09T03:17:15;16.20;99.90
46552;DHT22;32278;51.810;4.712;2022-09-09T03:19:42;16.20;99.90
46552;DHT22;32278;51.810;4.712;2022-09-09T03:22:10;16.20;99.90
46552;DHT22;32278;51.810;4.712;2022-09-09T03:24:35;16.20;99.90
46552;DHT22;32278;51.810;4.712;2022-09-09T03:27:01;16.10;99.90
46552;DHT22;32278;51.810;4.712;2022-09-09T03:29:26;16.20;99.90
46552;DHT22;32278;51.810;4.712;2022-09-09T03:31:52;16.20;99.90
46552;DHT22;32278;51.810;4.712;2022-09-09T03:34:17;16.20;99.90
46552;DHT22;32278;51.810;4.712;2022-09-09T03:36:43;16.20;99.90
46552;DHT22;32278;51.810;4.712;2022-09-09T03:39:08;16.20;99.90
46552;DHT22;32278;51.810;4.712;2022-09-09T03:41:34;16.20;99.90
46552;DHT22;32278;51.810;4.712;2022-09-09T03:44:00;16.10;99.90
46552;DHT22;32278;51.810;4.712;2022-09-09T03:46:25;16.10;99.90
46552;DHT22;32278;51.810;4.712;2022-09-09T03:48:51;16.10;99.90
46552;DHT22;32278;51.810;4.712;2022-09-09T03:51:20;16.20;99.90
46552;DHT22;32278;51.810;4.712;2022-09-09T03:53:47;16.20;99.90
46552;DHT22;32278;51.810;4.712;2022-09-09T03:56:12;16.20;99.90
46552;DHT22;32278;51.810;4.712;2022-09-09T03:58:38;16.20;99.90
46552;DHT22;32278;51.810;4.712;2022-09-09T04:01:08;16.20;99.90
46552;DHT22;32278;51.810;4.712;2022-09-09T04:03:34;16.10;99.90
46552;DHT22;32278;51.810;4.712;2022-09-09T04:06:02;16.10;99.90
46552;DHT22;32278;51.810;4.712;2022-09-09T04:08:29;16.20;99.90
46552;DHT22;32278;51.810;4.712;2022-09-09T04:10:56;16.10;99.90
46552;DHT22;32278;51.810;4.712;2022-09-09T04:13:24;16.20;99.90
46552;DHT22;32278;51.810;4.712;2022-09-09T04:15:57;16.20;99.90
46552;DHT22;32278;51.810;4.712;2022-09-09T04:18:23;16.20;99.90
46552;DHT22;32278;51.810;4.712;2022-09-09T04:20:50;16.20;99.90
46552;DHT22;32278;51.810;4.712;2022-09-09T04:23:17;16.20;99.90
46552;DHT22;32278;51.810;4.712;2022-09-09T04:25:48;16.20;99.90
46552;DHT22;32278;51.810;4.712;2022-09-09T04:28:15;16.30;99.90
46552;DHT22;32278;51.810;4.712;2022-09-09T04:30:42;16.30;99.90
46552;DHT22;32278;51.810;4.712;2022-09-09T04:33:08;16.20;99.90
46552;DHT22;32278;51.810;4.712;2022-09-09T04:35:35;16.30;99.90
46552;DHT22;32278;51.810;4.712;2022-09-09T04:38:01;16.20;99.90
46552;DHT22;32278;51.810;4.712;2022-09-09T04:40:28;16.30;99.90
46552;DHT22;32278;51.810;4.712;2022-09-09T04:42:55;16.30;99.90
46552;DHT22;32278;51.810;4.712;2022-09-09T04:45:20;16.30;99.90
46552;DHT22;32278;51.810;4.712;2022-09-09T04:47:46;16.30;99.90
46552;DHT22;32278;51.810;4.712;2022-09-09T04:50:11;16.40;99.90
46552;DHT22;32278;51.810;4.712;2022-09-09T04:52:37;16.50;99.90
46552;DHT22;32278;51.810;4.712;2022-09-09T04:55:03;16.50;99.90
46552;DHT22;32278;51.810;4.712;2022-09-09T04:57:29;16.50;99.90
46552;DHT22;32278;51.810;4.712;2022-09-09T04:59:57;16.60;99.90
46552;DHT22;32278;51.810;4.712;2022-09-09T05:02:23;16.50;99.90
46552;DHT22;32278;51.810;4.712;2022-09-09T05:04:48;16.50;99.90
46552;DHT22;32278;51.810;4.712;2022-09-09T05:07:15;16.50;99.90
46552;DHT22;32278;51.810;4.712;2022-09-09T05:09:40;16.50;99.90
46552;DHT22;32278;51.810;4.712;2022-09-09T05:12:06;16.60;99.90
46552;DHT22;32278;51.810;4.712;2022-09-09T05:14:32;16.50;99.90
46552;DHT22;32278;51.810;4.712;2022-09-09T05:16:57;16.60;99.90
46552;DHT22;32278;51.810;4.712;2022-09-09T05:19:23;16.50;99.90
46552;DHT22;32278;51.810;4.712;2022-09-09T05:21:49;16.50;99.90
46552;DHT22;32278;51.810;4.712;2022-09-09T05:24:15;16.60;99.90
46552;DHT22;32278;51.810;4.712;2022-09-09T05:26:42;16.60;99.90
46552;DHT22;32278;51.810;4.712;2022-09-09T05:29:08;16.50;99.90
46552;DHT22;32278;51.810;4.712;2022-09-09T05:31:34;16.50;99.90
46552;DHT22;32278;51.810;4.712;2022-09-09T05:33:59;16.60;99.90
46552;DHT22;32278;51.810;4.712;2022-09-09T05:36:25;16.60;99.90
46552;DHT22;32278;51.810;4.712;2022-09-09T05:38:51;16.50;99.90
46552;DHT22;32278;51.810;4.712;2022-09-09T05:41:19;16.50;99.90
46552;DHT22;32278;51.810;4.712;2022-09-09T05:43:45;16.50;99.90
46552;DHT22;32278;51.810;4.712;2022-09-09T05:46:14;16.50;99.90
46552;DHT22;32278;51.810;4.712;2022-09-09T05:48:45;16.50;99.90
46552;DHT22;32278;51.810;4.712;2022-09-09T05:51:21;16.50;99.90
46552;DHT22;32278;51.810;4.712;2022-09-09T05:53:48;16.60;99.90
46552;DHT22;32278;51.810;4.712;2022-09-09T05:58:46;16.70;99.90
46552;DHT22;32278;51.810;4.712;2022-09-09T06:01:18;16.70;99.90
46552;DHT22;32278;51.810;4.712;2022-09-09T06:03:46;16.70;99.90
46552;DHT22;32278;51.810;4.712;2022-09-09T06:06:14;16.80;99.90
46552;DHT22;32278;51.810;4.712;2022-09-09T06:08:42;16.80;99.90
46552;DHT22;32278;51.810;4.712;2022-09-09T06:11:19;16.80;99.90
46552;DHT22;32278;51.810;4.712;2022-09-09T06:13:45;16.90;99.90
46552;DHT22;32278;51.810;4.712;2022-09-09T06:16:15;17.00;99.90
46552;DHT22;32278;51.810;4.712;2022-09-09T06:18:42;17.00;99.90
46552;DHT22;32278;51.810;4.712;2022-09-09T06:23:46;17.10;99.90
46552;DHT22;32278;51.810;4.712;2022-09-09T06:26:15;17.10;99.90
46552;DHT22;32278;51.810;4.712;2022-09-09T06:28:42;17.20;99.90
46552;DHT22;32278;51.810;4.712;2022-09-09T06:31:10;17.20;99.90
46552;DHT22;32278;51.810;4.712;2022-09-09T06:33:40;17.20;99.90
46552;DHT22;32278;51.810;4.712;2022-09-09T06:36:14;17.10;99.90
46552;DHT22;32278;51.810;4.712;2022-09-09T06:38:41;17.20;99.90
46552;DHT22;32278;51.810;4.712;2022-09-09T06:41:08;17.20;99.90
46552;DHT22;32278;51.810;4.712;2022-09-09T06:43:34;17.20;99.90
46552;DHT22;32278;51.810;4.712;2022-09-09T06:46:12;17.20;99.90
46552;DHT22;32278;51.810;4.712;2022-09-09T06:48:39;17.30;99.90
46552;DHT22;32278;51.810;4.712;2022-09-09T06:51:11;17.30;99.90
46552;DHT22;32278;51.810;4.712;2022-09-09T06:53:39;17.50;99.90
46552;DHT22;32278;51.810;4.712;2022-09-09T06:58:40;17.40;99.90
46552;DHT22;32278;51.810;4.712;2022-09-09T07:01:14;17.50;99.90
46552;DHT22;32278;51.810;4.712;2022-09-09T07:03:40;17.40;99.90
46552;DHT22;32278;51.810;4.712;2022-09-09T07:06:07;17.50;99.90
46552;DHT22;32278;51.810;4.712;2022-09-09T07:08:34;17.40;99.90
46552;DHT22;32278;51.810;4.712;2022-09-09T07:11:09;17.40;99.90
46552;DHT22;32278;51.810;4.712;2022-09-09T07:13:35;17.30;99.90
46552;DHT22;32278;51.810;4.712;2022-09-09T07:16:27;17.20;99.90
46552;DHT22;32278;51.810;4.712;2022-09-09T07:18:53;17.30;99.90
46552;DHT22;32278;51.810;4.712;2022-09-09T07:21:24;17.30;99.90
46552;DHT22;32278;51.810;4.712;2022-09-09T07:23:50;17.30;99.90
46552;DHT22;32278;51.810;4.712;2022-09-09T07:26:18;17.30;99.90
46552;DHT22;32278;51.810;4.712;2022-09-09T07:28:47;17.30;99.90
46552;DHT22;32278;51.810;4.712;2022-09-09T07:33:42;17.50;99.90
46552;DHT22;32278;51.810;4.712;2022-09-09T07:36:14;17.50;99.90
46552;DHT22;32278;51.810;4.712;2022-09-09T07:38:42;17.40;99.90
46552;DHT22;32278;51.810;4.712;2022-09-09T07:41:10;17.30;99.90
46552;DHT22;32278;51.810;4.712;2022-09-09T07:43:40;17.40;99.90
46552;DHT22;32278;51.810;4.712;2022-09-09T07:46:06;17.40;99.90
46552;DHT22;32278;51.810;4.712;2022-09-09T07:48:32;17.30;99.90
46552;DHT22;32278;51.810;4.712;2022-09-09T07:51:09;17.30;99.90
46552;DHT22;32278;51.810;4.712;2022-09-09T07:53:36;17.10;99.90
46552;DHT22;32278;51.810;4.712;2022-09-09T07:56:06;17.10;99.90
46552;DHT22;32278;51.810;4.712;2022-09-09T07:58:32;17.10;99.90
46552;DHT22;32278;51.810;4.712;2022-09-09T08:00:58;17.00;99.90
46552;DHT22;32278;51.810;4.712;2022-09-09T08:03:24;17.00;99.90
46552;DHT22;32278;51.810;4.712;2022-09-09T08:05:50;17.00;99.90
46552;DHT22;32278;51.810;4.712;2022-09-09T08:08:15;17.10;99.90
46552;DHT22;32278;51.810;4.712;2022-09-09T08:10:42;17.30;99.90
46552;DHT22;32278;51.810;4.712;2022-09-09T08:13:09;17.30;99.90
46552;DHT22;32278;51.810;4.712;2022-09-09T08:15:34;17.40;99.90
46552;DHT22;32278;51.810;4.712;2022-09-09T08:18:00;17.60;99.90
46552;DHT22;32278;51.810;4.712;2022-09-09T08:20:25;17.60;99.90
46552;DHT22;32278;51.810;4.712;2022-09-09T08:22:51;17.60;99.90
46552;DHT22;32278;51.810;4.712;2022-09-09T08:25:16;17.60;99.90
46552;DHT22;32278;51.810;4.712;2022-09-09T08:27:42;17.60;99.90
46552;DHT22;32278;51.810;4.712;2022-09-09T08:30:08;17.60;99.90
46552;DHT22;32278;51.810;4.712;2022-09-09T08:32:34;17.60;99.90
46552;DHT22;32278;51.810;4.712;2022-09-09T08:35:00;17.40;99.90
46552;DHT22;32278;51.810;4.712;2022-09-09T08:37:26;17.40;99.90
46552;DHT22;32278;51.810;4.712;2022-09-09T08:39:51;17.40;99.90
46552;DHT22;32278;51.810;4.712;2022-09-09T08:42:23;17.40;99.90
46552;DHT22;32278;51.810;4.712;2022-09-09T08:52:52;17.50;99.90
46552;DHT22;32278;51.810;4.712;2022-09-09T08:55:27;17.40;99.90
46552;DHT22;32278;51.810;4.712;2022-09-09T08:57:55;17.40;99.90
46552;DHT22;32278;51.810;4.712;2022-09-09T09:00:22;17.50;99.90
46552;DHT22;32278;51.810;4.712;2022-09-09T09:03:04;17.60;99.90
46552;DHT22;32278;51.810;4.712;2022-09-09T09:05:59;17.60;99.90
46552;DHT22;32278;51.810;4.712;2022-09-09T09:10:59;17.50;99.90
46552;DHT22;32278;51.810;4.712;2022-09-09T09:13:45;17.50;99.90
46552;DHT22;32278;51.810;4.712;2022-09-09T09:16:24;17.50;99.90
46552;DHT22;32278;51.810;4.712;2022-09-09T09:18:51;17.50;99.90
46552;DHT22;32278;51.810;4.712;2022-09-09T09:21:38;17.50;99.90
46552;DHT22;32278;51.810;4.712;2022-09-09T09:24:11;17.50;99.90
46552;DHT22;32278;51.810;4.712;2022-09-09T09:26:46;17.60;99.90
46552;DHT22;32278;51.810;4.712;2022-09-09T09:29:18;17.50;99.90
46552;DHT22;32278;51.810;4.712;2022-09-09T09:31:51;17.50;99.90
46552;DHT22;32278;51.810;4.712;2022-09-09T09:34:17;17.60;99.90
46552;DHT22;32278;51.810;4.712;2022-09-09T09:36:54;17.70;99.90
46552;DHT22;32278;51.810;4.712;2022-09-09T09:39:47;17.60;99.90
46552;DHT22;32278;51.810;4.712;2022-09-09T09:42:15;17.60;99.90
46552;DHT22;32278;51.810;4.712;2022-09-09T09:44:41;17.60;99.90
46552;DHT22;32278;51.810;4.712;2022-09-09T09:47:14;17.70;99.90
46552;DHT22;32278;51.810;4.712;2022-09-09T09:49:54;17.70;99.90
46552;DHT22;32278;51.810;4.712;2022-09-09T09:52:26;17.70;99.90
46552;DHT22;32278;51.810;4.712;2022-09-09T09:54:54;17.70;99.90
46552;DHT22;32278;51.810;4.712;2022-09-09T09:57:25;17.80;99.90
46552;DHT22;32278;51.810;4.712;2022-09-09T10:00:21;17.80;99.90
46552;DHT22;32278;51.810;4.712;2022-09-09T10:02:48;17.90;99.90
46552;DHT22;32278;51.810;4.712;2022-09-09T10:07:45;17.90;99.90
46552;DHT22;32278;51.810;4.712;2022-09-09T10:10:27;18.10;99.90
46552;DHT22;32278;51.810;4.712;2022-09-09T10:13:11;18.30;99.90
46552;DHT22;32278;51.810;4.712;2022-09-09T10:18:49;18.10;99.90
46552;DHT22;32278;51.810;4.712;2022-09-09T10:30:04;18.00;99.90
46552;DHT22;32278;51.810;4.712;2022-09-09T10:32:58;17.90;99.90
46552;DHT22;32278;51.810;4.712;2022-09-09T10:46:23;17.90;99.90
46552;DHT22;32278;51.810;4.712;2022-09-09T10:49:06;17.70;99.90
46552;DHT22;32278;51.810;4.712;2022-09-09T10:51:42;17.80;99.90
46552;DHT22;32278;51.810;4.712;2022-09-09T10:57:21;17.80;99.90
46552;DHT22;32278;51.810;4.712;2022-09-09T10:59:53;17.90;99.90
46552;DHT22;32278;51.810;4.712;2022-09-09T11:07:54;18.00;99.90
46552;DHT22;32278;51.810;4.712;2022-09-09T11:12:52;18.30;99.90
46552;DHT22;32278;51.810;4.712;2022-09-09T11:15:24;18.50;99.90
46552;DHT22;32278;51.810;4.712;2022-09-09T11:17:56;18.70;99.90
46552;DHT22;32278;51.810;4.712;2022-09-09T11:20:23;19.00;99.90
46552;DHT22;32278;51.810;4.712;2022-09-09T11:23:22;19.20;99.90
46552;DHT22;32278;51.810;4.712;2022-09-09T11:26:01;19.00;99.90
46552;DHT22;32278;51.810;4.712;2022-09-09T11:31:52;19.10;99.90
46552;DHT22;32278;51.810;4.712;2022-09-09T11:37:36;19.40;99.90
46552;DHT22;32278;51.810;4.712;2022-09-09T11:40:23;19.20;99.90
46552;DHT22;32278;51.810;4.712;2022-09-09T11:42:49;19.00;99.90
46552;DHT22;32278;51.810;4.712;2022-09-09T11:45:26;19.60;99.90
46552;DHT22;32278;51.810;4.712;2022-09-09T11:47:58;19.50;99.90
46552;DHT22;32278;51.810;4.712;2022-09-09T11:52:50;19.40;99.90
46552;DHT22;32278;51.810;4.712;2022-09-09T11:55:31;19.70;99.90
46552;DHT22;32278;51.810;4.712;2022-09-09T12:00:43;19.70;99.90
46552;DHT22;32278;51.810;4.712;2022-09-09T12:03:50;19.40;99.90
46552;DHT22;32278;51.810;4.712;2022-09-09T12:06:41;19.10;99.90
46552;DHT22;32278;51.810;4.712;2022-09-09T12:11:49;18.80;99.90
46552;DHT22;32278;51.810;4.712;2022-09-09T12:14:23;18.50;99.90
46552;DHT22;32278;51.810;4.712;2022-09-09T12:19:41;18.50;99.90
46552;DHT22;32278;51.810;4.712;2022-09-09T12:22:24;18.40;99.90
46552;DHT22;32278;51.810;4.712;2022-09-09T12:28:09;18.60;99.90
46552;DHT22;32278;51.810;4.712;2022-09-09T12:30:58;18.50;99.90
46552;DHT22;32278;51.810;4.712;2022-09-09T12:33:34;18.40;99.90
46552;DHT22;32278;51.810;4.712;2022-09-09T12:36:00;18.40;99.90
46552;DHT22;32278;51.810;4.712;2022-09-09T12:38:38;18.40;99.90
46552;DHT22;32278;51.810;4.712;2022-09-09T12:41:04;18.60;99.90
46552;DHT22;32278;51.810;4.712;2022-09-09T12:43:30;18.70;99.90
46552;DHT22;32278;51.810;4.712;2022-09-09T12:46:03;18.70;99.90
46552;DHT22;32278;51.810;4.712;2022-09-09T12:48:38;18.70;99.90
46552;DHT22;32278;51.810;4.712;2022-09-09T12:51:28;18.60;99.90
46552;DHT22;32278;51.810;4.712;2022-09-09T12:53:54;18.70;99.90
46552;DHT22;32278;51.810;4.712;2022-09-09T12:56:23;18.60;99.90
46552;DHT22;32278;51.810;4.712;2022-09-09T12:58:52;18.70;99.90
46552;DHT22;32278;51.810;4.712;2022-09-09T13:01:28;18.80;99.90
46552;DHT22;32278;51.810;4.712;2022-09-09T13:03:55;18.80;99.90
46552;DHT22;32278;51.810;4.712;2022-09-09T13:06:26;18.80;99.90
46552;DHT22;32278;51.810;4.712;2022-09-09T13:08:52;18.90;99.90
46552;DHT22;32278;51.810;4.712;2022-09-09T13:11:47;18.80;99.90
46552;DHT22;32278;51.810;4.712;2022-09-09T13:14:17;19.00;99.90
46552;DHT22;32278;51.810;4.712;2022-09-09T13:16:55;18.90;99.90
46552;DHT22;32278;51.810;4.712;2022-09-09T13:19:22;18.80;99.90
46552;DHT22;32278;51.810;4.712;2022-09-09T13:21:47;18.80;99.90
46552;DHT22;32278;51.810;4.712;2022-09-09T13:24:32;18.70;99.90
46552;DHT22;32278;51.810;4.712;2022-09-09T13:29:56;19.00;99.90
46552;DHT22;32278;51.810;4.712;2022-09-09T13:32:23;19.10;99.90
46552;DHT22;32278;51.810;4.712;2022-09-09T13:35:00;18.90;99.90
46552;DHT22;32278;51.810;4.712;2022-09-09T13:37:37;19.00;99.90
46552;DHT22;32278;51.810;4.712;2022-09-09T13:40:04;19.00;99.90
46552;DHT22;32278;51.810;4.712;2022-09-09T13:42:33;18.90;99.90
46552;DHT22;32278;51.810;4.712;2022-09-09T13:45:01;18.60;99.90
46552;DHT22;32278;51.810;4.712;2022-09-09T13:47:33;18.40;99.90
46552;DHT22;32278;51.810;4.712;2022-09-09T13:50:20;18.50;99.90
46552;DHT22;32278;51.810;4.712;2022-09-09T13:52:47;18.60;99.90
46552;DHT22;32278;51.810;4.712;2022-09-09T13:55:13;18.70;99.90
46552;DHT22;32278;51.810;4.712;2022-09-09T13:57:38;18.50;99.90
46552;DHT22;32278;51.810;4.712;2022-09-09T14:00:06;18.70;99.90
46552;DHT22;32278;51.810;4.712;2022-09-09T14:02:34;18.80;99.90
46552;DHT22;32278;51.810;4.712;2022-09-09T14:04:59;18.70;99.90
46552;DHT22;32278;51.810;4.712;2022-09-09T14:07:25;18.80;99.90
46552;DHT22;32278;51.810;4.712;2022-09-09T14:09:51;18.70;99.90
46552;DHT22;32278;51.810;4.712;2022-09-09T14:12:17;18.60;99.90
46552;DHT22;32278;51.810;4.712;2022-09-09T14:14:43;18.50;99.90
46552;DHT22;32278;51.810;4.712;2022-09-09T14:17:09;18.60;99.90
46552;DHT22;32278;51.810;4.712;2022-09-09T14:19:35;18.50;99.90
46552;DHT22;32278;51.810;4.712;2022-09-09T14:22:02;18.50;99.90
46552;DHT22;32278;51.810;4.712;2022-09-09T14:24:27;18.60;99.90
46552;DHT22;32278;51.810;4.712;2022-09-09T14:26:54;18.50;99.90
46552;DHT22;32278;51.810;4.712;2022-09-09T14:29:19;18.60;99.90
46552;DHT22;32278;51.810;4.712;2022-09-09T14:31:45;18.70;99.90
46552;DHT22;32278;51.810;4.712;2022-09-09T14:34:11;18.60;99.90
46552;DHT22;32278;51.810;4.712;2022-09-09T14:36:37;18.40;99.90
46552;DHT22;32278;51.810;4.712;2022-09-09T14:39:03;18.30;99.90
46552;DHT22;32278;51.810;4.712;2022-09-09T14:41:30;18.20;99.90
46552;DHT22;32278;51.810;4.712;2022-09-09T14:43:55;18.10;99.90
46552;DHT22;32278;51.810;4.712;2022-09-09T14:46:21;18.10;99.90
46552;DHT22;32278;51.810;4.712;2022-09-09T14:48:47;18.20;99.90
46552;DHT22;32278;51.810;4.712;2022-09-09T14:51:19;18.20;99.90
46552;DHT22;32278;51.810;4.712;2022-09-09T14:53:46;18.20;99.90
46552;DHT22;32278;51.810;4.712;2022-09-09T14:56:17;18.10;99.90
46552;DHT22;32278;51.810;4.712;2022-09-09T14:58:43;18.10;99.90
46552;DHT22;32278;51.810;4.712;2022-09-09T15:01:14;18.20;99.90
46552;DHT22;32278;51.810;4.712;2022-09-09T15:03:41;18.40;99.90
46552;DHT22;32278;51.810;4.712;2022-09-09T15:06:08;18.40;99.90
46552;DHT22;32278;51.810;4.712;2022-09-09T15:08:35;18.40;99.90
46552;DHT22;32278;51.810;4.712;2022-09-09T15:11:02;18.50;99.90
46552;DHT22;32278;51.810;4.712;2022-09-09T15:13:28;18.50;99.90
46552;DHT22;32278;51.810;4.712;2022-09-09T15:15:53;18.60;99.90
46552;DHT22;32278;51.810;4.712;2022-09-09T15:18:20;18.60;99.90
46552;DHT22;32278;51.810;4.712;2022-09-09T15:20:46;18.60;99.90
46552;DHT22;32278;51.810;4.712;2022-09-09T15:23:14;18.60;99.90
46552;DHT22;32278;51.810;4.712;2022-09-09T15:25:51;18.70;99.90
46552;DHT22;32278;51.810;4.712;2022-09-09T15:28:17;18.80;99.90
46552;DHT22;32278;51.810;4.712;2022-09-09T15:30:43;18.70;99.90
46552;DHT22;32278;51.810;4.712;2022-09-09T15:33:10;18.70;99.90
46552;DHT22;32278;51.810;4.712;2022-09-09T15:35:36;18.70;99.90
46552;DHT22;32278;51.810;4.712;2022-09-09T15:38:02;18.70;99.90
46552;DHT22;32278;51.810;4.712;2022-09-09T15:40:30;18.70;99.90
46552;DHT22;32278;51.810;4.712;2022-09-09T15:42:57;18.70;99.90
46552;DHT22;32278;51.810;4.712;2022-09-09T15:45:24;18.80;99.90
46552;DHT22;32278;51.810;4.712;2022-09-09T15:47:50;18.90;99.90
46552;DHT22;32278;51.810;4.712;2022-09-09T15:50:17;18.90;99.90
46552;DHT22;32278;51.810;4.712;2022-09-09T15:52:42;19.00;99.90
46552;DHT22;32278;51.810;4.712;2022-09-09T15:55:08;19.20;99.90
46552;DHT22;32278;51.810;4.712;2022-09-09T15:57:34;19.10;99.90
46552;DHT22;32278;51.810;4.712;2022-09-09T16:00:00;19.10;99.90
46552;DHT22;32278;51.810;4.712;2022-09-09T16:02:26;19.10;99.90
46552;DHT22;32278;51.810;4.712;2022-09-09T16:04:52;19.20;99.90
46552;DHT22;32278;51.810;4.712;2022-09-09T16:07:17;19.10;99.90
46552;DHT22;32278;51.810;4.712;2022-09-09T16:09:43;18.90;99.90
46552;DHT22;32278;51.810;4.712;2022-09-09T16:12:09;19.00;99.90
46552;DHT22;32278;51.810;4.712;2022-09-09T16:14:37;19.00;99.90
46552;DHT22;32278;51.810;4.712;2022-09-09T16:17:04;19.10;99.90
46552;DHT22;32278;51.810;4.712;2022-09-09T16:19:31;19.10;99.90
46552;DHT22;32278;51.810;4.712;2022-09-09T16:21:56;19.10;99.90
46552;DHT22;32278;51.810;4.712;2022-09-09T16:24:22;19.10;99.90
46552;DHT22;32278;51.810;4.712;2022-09-09T16:26:51;19.10;99.90
46552;DHT22;32278;51.810;4.712;2022-09-09T16:29:18;19.10;99.90
46552;DHT22;32278;51.810;4.712;2022-09-09T16:31:48;19.10;99.90
46552;DHT22;32278;51.810;4.712;2022-09-09T16:34:15;19.20;99.90
46552;DHT22;32278;51.810;4.712;2022-09-09T16:36:43;19.10;99.90
46552;DHT22;32278;51.810;4.712;2022-09-09T16:39:15;19.00;99.90
46552;DHT22;32278;51.810;4.712;2022-09-09T16:41:42;19.10;99.90
46552;DHT22;32278;51.810;4.712;2022-09-09T16:44:10;19.10;99.90
46552;DHT22;32278;51.810;4.712;2022-09-09T16:46:38;19.10;99.90
46552;DHT22;32278;51.810;4.712;2022-09-09T16:49:09;19.00;99.90
46552;DHT22;32278;51.810;4.712;2022-09-09T16:51:41;19.00;99.90
46552;DHT22;32278;51.810;4.712;2022-09-09T16:54:08;18.90;99.90
46552;DHT22;32278;51.810;4.712;2022-09-09T16:56:36;19.00;99.90
46552;DHT22;32278;51.810;4.712;2022-09-09T16:59:09;18.90;99.90
46552;DHT22;32278;51.810;4.712;2022-09-09T17:01:37;18.90;99.90
46552;DHT22;32278;51.810;4.712;2022-09-09T17:04:13;18.80;99.90
46552;DHT22;32278;51.810;4.712;2022-09-09T17:06:40;18.80;99.90
46552;DHT22;32278;51.810;4.712;2022-09-09T17:09:10;18.70;99.90
46552;DHT22;32278;51.810;4.712;2022-09-09T17:11:37;18.70;99.90
46552;DHT22;32278;51.810;4.712;2022-09-09T17:14:04;18.70;99.90
46552;DHT22;32278;51.810;4.712;2022-09-09T17:16:31;18.60;99.90
46552;DHT22;32278;51.810;4.712;2022-09-09T17:18:59;18.60;99.90
46552;DHT22;32278;51.810;4.712;2022-09-09T17:21:27;18.60;99.90
46552;DHT22;32278;51.810;4.712;2022-09-09T17:23:54;18.60;99.90
46552;DHT22;32278;51.810;4.712;2022-09-09T17:26:23;18.70;99.90
46552;DHT22;32278;51.810;4.712;2022-09-09T17:28:48;18.70;99.90
46552;DHT22;32278;51.810;4.712;2022-09-09T17:31:16;18.70;99.90
46552;DHT22;32278;51.810;4.712;2022-09-09T17:33:45;18.70;99.90
46552;DHT22;32278;51.810;4.712;2022-09-09T17:38:37;18.60;99.90
46552;DHT22;32278;51.810;4.712;2022-09-09T17:43:33;18.50;99.90
46552;DHT22;32278;51.810;4.712;2022-09-09T17:48:35;18.60;99.90
46552;DHT22;32278;51.810;4.712;2022-09-09T17:51:05;18.60;99.90
46552;DHT22;32278;51.810;4.712;2022-09-09T17:53:40;18.60;99.90
46552;DHT22;32278;51.810;4.712;2022-09-09T17:56:08;18.70;99.90
46552;DHT22;32278;51.810;4.712;2022-09-09T17:58:34;18.70;99.90
46552;DHT22;32278;51.810;4.712;2022-09-09T18:01:13;18.70;99.90